Stevens Point, WI (54481)

4:59 AM CDT on June 25, 2017 (GMT -0500)
2nd Street North | | Change Station

Elev 1115 ft 44.54 °N, 89.59 °W | Updated 4 minutes ago

Clear
Clear
51.1 °F
Feels Like 51.1 °F
N
1.2
Wind Variable Wind from WSW
Gusts 2.5 mph

Today
High -- | Low -- °F
--% Chance of Precip.
Yesterday
High -- | Low -- °F
Precip. -- in
Pressure 30.00 in
Visibility 10.0 miles
Clouds Clear
Dew Point 44 °F
Humidity 77%
Rainfall 0.00 in
Snow Depth Not available.
5:14 AM 8:47 PM
Waxing Crescent, 3% visible
METAR KSTE 250935Z AUTO 26004KT 10SM CLR 09/08 A3000 RMK AO2 T00910082
Pressure 30.00 in
Visibility 10.0 miles
Clouds Clear
Dew Point 44 °F
Humidity 77%
Rainfall 0.00 in
Snow Depth Not available.
5:14 AM 8:47 PM
Waxing Crescent, 3% visible
METAR KSTE 250935Z AUTO 26004KT 10SM CLR 09/08 A3000 RMK AO2 T00910082

Get Severe Weather Alerts

Thanks for signing up!

Be on the lookout for a verification email in your inbox.

You'll start receiving the daily forecast at 6 AM.

×

10-Day Weather Forecast

Almanac

Astronomy

Jun. 25, 2017 Rise Set
Actual Time
Civil Twilight
Nautical Twilight
Astronomical Twilight
Moon
Length of Visible Light
Length of Day
Tomorrow will be .
, % of the Moon is Illuminated

Today's Extremes

State Highs State Lows

Community

WunderPhotos

Category 6

Welcome to Category 6. This is the collective home for Weather Underground's featured writeups by Dr. Jeff Masters (right), Bob Henson (left), Chris Burt, and other regular contributors.

Nearby

Air Quality

  Air Quality AQ Index Pollutant
Not available.

Snow Depth

Station Depth Elevation

Earthquake Activity

City Distance Mag. Time & Date
Minimum magnitude displayed is 2.5.

Coastal Water Temperatures

Place Temperature

Stations

Nearby Weather Stations

Station Location Temp. Windchill Dew Point Humidity Wind Precip. Elev Updated Type
                   

Watches & Warnings

There are currently no watches in effect.